createdAt,value
2019-04-30T00:01:43.634Z,43.10
2019-04-30T00:04:15.640Z,45.00
2019-04-30T00:06:42.579Z,47.80
2019-04-30T00:09:15.099Z,45.20
2019-04-30T00:11:40.616Z,45.97
2019-04-30T00:14:07.206Z,47.50
2019-04-30T00:16:36.229Z,48.67
2019-04-30T00:19:03.277Z,48.43
2019-04-30T00:21:29.916Z,47.47
2019-04-30T00:24:00.806Z,47.23
2019-04-30T00:26:25.411Z,47.50
2019-04-30T00:28:52.214Z,44.93
2019-04-30T00:31:23.698Z,48.67
2019-04-30T00:33:47.435Z,48.00
2019-04-30T00:36:14.845Z,47.77
2019-04-30T00:38:42.611Z,48.10
2019-04-30T00:41:10.242Z,50.50
2019-04-30T00:43:37.667Z,50.80
2019-04-30T00:46:07.617Z,47.53
2019-04-30T00:48:35.710Z,49.43
2019-04-30T00:51:02.646Z,47.23
2019-04-30T00:53:29.256Z,46.97
2019-04-30T00:55:57.385Z,49.73
2019-04-30T00:58:28.518Z,50.77
2019-04-30T01:01:15.152Z,46.33
2019-04-30T01:03:49.356Z,45.00
2019-04-30T01:06:12.438Z,45.00
2019-04-30T01:08:39.362Z,45.37
2019-04-30T01:11:09.578Z,43.40
2019-04-30T01:13:36.494Z,44.60
2019-04-30T01:16:03.284Z,45.70
2019-04-30T01:18:32.025Z,47.27
2019-04-30T01:20:58.695Z,45.97
2019-04-30T01:23:25.552Z,46.27
2019-04-30T01:25:52.328Z,47.23
2019-04-30T01:28:22.901Z,45.53
2019-04-30T01:30:49.432Z,46.40
2019-04-30T01:33:16.307Z,45.53
2019-04-30T01:35:43.012Z,44.37
2019-04-30T01:38:12.772Z,44.47
2019-04-30T01:40:42.773Z,43.47
2019-04-30T01:43:10.330Z,41.87
2019-04-30T01:45:38.689Z,45.13
2019-04-30T01:48:10.765Z,45.23
2019-04-30T01:50:38.632Z,44.53
2019-04-30T01:53:04.777Z,42.90
2019-04-30T01:55:41.296Z,42.20
2019-04-30T01:58:19.126Z,42.37
2019-04-30T02:00:52.878Z,43.30
2019-04-30T02:03:21.328Z,42.97
2019-04-30T02:05:49.716Z,44.93
2019-04-30T02:08:16.618Z,44.03
2019-04-30T02:10:43.344Z,43.07
2019-04-30T02:13:10.196Z,41.90
2019-04-30T02:15:36.973Z,43.17
2019-04-30T02:18:04.182Z,48.17
2019-04-30T02:20:30.964Z,47.87
2019-04-30T02:22:58.669Z,49.87
2019-04-30T02:25:25.565Z,49.33
2019-04-30T02:27:52.222Z,48.53
2019-04-30T02:30:20.869Z,48.53
2019-04-30T02:32:52.090Z,50.00
2019-04-30T02:35:34.615Z,51.43
2019-04-30T02:38:12.036Z,51.03
2019-04-30T02:40:39.304Z,52.93
2019-04-30T02:43:09.463Z,53.60
2019-04-30T02:45:40.134Z,53.10
2019-04-30T02:48:11.415Z,53.80
2019-04-30T02:50:39.374Z,50.83
2019-04-30T02:54:00.388Z,51.83
2019-04-30T02:56:26.995Z,52.20
2019-04-30T02:58:54.384Z,52.83
2019-04-30T03:01:21.101Z,53.13
2019-04-30T03:03:50.050Z,52.17
2019-04-30T03:06:16.283Z,53.90
2019-04-30T03:08:43.207Z,53.87
2019-04-30T03:11:12.658Z,54.77
2019-04-30T03:13:42.729Z,54.50
2019-04-30T03:16:15.619Z,56.30
2019-04-30T03:18:59.533Z,51.93
2019-04-30T03:21:44.823Z,51.03
2019-04-30T03:24:15.501Z,54.20
2019-04-30T03:26:43.409Z,52.50
2019-04-30T03:29:11.492Z,50.93
2019-04-30T03:31:44.278Z,50.97
2019-04-30T03:34:16.851Z,48.33
2019-04-30T03:36:40.388Z,50.93
2019-04-30T03:39:11.336Z,52.07
2019-04-30T03:41:46.922Z,52.33
2019-04-30T03:44:21.695Z,52.90
2019-04-30T03:46:40.451Z,52.60
2019-04-30T03:49:10.616Z,54.03
2019-04-30T03:51:35.924Z,47.40
2019-04-30T03:54:03.216Z,49.73
2019-04-30T03:56:32.897Z,46.93
2019-04-30T03:59:00.300Z,48.23
2019-04-30T04:01:49.913Z,47.60
2019-04-30T04:04:27.144Z,45.93
2019-04-30T04:07:00.089Z,45.67
2019-04-30T04:09:32.703Z,46.47
2019-04-30T04:12:23.944Z,47.90
2019-04-30T04:14:53.348Z,41.83
2019-04-30T04:17:23.991Z,43.47
2019-04-30T04:22:33.435Z,41.57
2019-04-30T04:25:01.398Z,38.87
2019-04-30T04:27:30.045Z,38.90
2019-04-30T04:30:01.216Z,39.87
2019-04-30T04:32:30.948Z,39.33
2019-04-30T04:35:00.165Z,35.77
2019-04-30T04:37:29.809Z,33.40
2019-04-30T04:39:59.342Z,30.70
2019-04-30T04:42:32.358Z,31.30
2019-04-30T04:44:56.436Z,33.83
2019-04-30T04:47:30.924Z,30.30
2019-04-30T04:50:00.648Z,29.90
2019-04-30T04:52:31.133Z,28.83
2019-04-30T04:55:00.148Z,29.77
2019-04-30T04:57:27.095Z,28.63
2019-04-30T04:59:54.289Z,28.27
2019-04-30T05:02:39.686Z,26.10
2019-04-30T05:05:13.147Z,23.03
2019-04-30T05:07:45.179Z,21.67
2019-04-30T05:10:12.810Z,20.83
2019-04-30T05:13:06.725Z,23.27
2019-04-30T05:15:36.509Z,23.10
2019-04-30T05:18:09.208Z,23.33
2019-04-30T05:20:41.232Z,25.00
2019-04-30T05:23:09.479Z,24.57
2019-04-30T05:25:36.201Z,24.33
2019-04-30T05:28:03.640Z,24.30
2019-04-30T05:30:30.354Z,23.13
2019-04-30T05:32:58.493Z,23.17
2019-04-30T05:35:25.653Z,21.37
2019-04-30T05:37:52.293Z,24.17
2019-04-30T05:40:19.160Z,23.37
2019-04-30T05:42:45.799Z,22.40
2019-04-30T05:45:12.699Z,23.33
2019-04-30T05:47:39.538Z,21.57
2019-04-30T05:50:08.675Z,20.20
2019-04-30T05:52:35.315Z,18.80
2019-04-30T05:55:03.223Z,19.57
2019-04-30T05:57:30.031Z,17.53
2019-04-30T05:59:58.483Z,18.80
2019-04-30T06:02:25.370Z,17.80
2019-04-30T06:04:52.153Z,18.53
2019-04-30T06:07:19.138Z,19.13
2019-04-30T06:09:59.595Z,18.50
2019-04-30T06:12:34.631Z,20.03
2019-04-30T06:15:16.000Z,19.07
2019-04-30T06:17:57.325Z,18.73
2019-04-30T06:20:18.370Z,20.70
2019-04-30T06:22:42.943Z,20.13
2019-04-30T06:25:10.792Z,19.87
2019-04-30T06:27:38.719Z,20.90
2019-04-30T06:30:07.174Z,21.50
2019-04-30T06:32:34.181Z,20.63
2019-04-30T06:35:00.921Z,21.33
2019-04-30T06:37:28.802Z,22.43
2019-04-30T06:39:56.639Z,20.67
2019-04-30T06:42:23.434Z,22.97
2019-04-30T06:44:50.177Z,22.27
2019-04-30T06:47:20.061Z,22.50
2019-04-30T06:49:51.360Z,22.80
2019-04-30T06:52:23.037Z,22.97
2019-04-30T06:54:49.984Z,24.20
2019-04-30T06:57:19.811Z,22.43
2019-04-30T06:59:47.061Z,23.67
2019-04-30T07:02:13.602Z,26.27
2019-04-30T07:04:40.291Z,24.90
2019-04-30T07:07:09.067Z,24.20
2019-04-30T07:09:53.238Z,23.80
2019-04-30T07:12:27.101Z,24.60
2019-04-30T07:14:46.207Z,25.50
2019-04-30T07:17:13.162Z,25.27
2019-04-30T07:19:53.359Z,24.53
2019-04-30T07:22:09.087Z,25.03
2019-04-30T07:24:35.907Z,24.97
2019-04-30T07:27:02.934Z,26.37
2019-04-30T07:29:30.174Z,25.37
2019-04-30T07:31:59.126Z,26.63
2019-04-30T07:34:37.069Z,26.03
2019-04-30T07:37:15.929Z,25.47
2019-04-30T07:39:33.873Z,27.27
2019-04-30T07:42:00.664Z,27.67
2019-04-30T07:44:36.252Z,28.03
2019-04-30T07:46:59.354Z,30.80
2019-04-30T07:52:06.915Z,28.53
2019-04-30T07:54:34.269Z,29.97
2019-04-30T07:57:00.941Z,29.37
2019-04-30T07:59:30.054Z,29.67
2019-04-30T08:02:10.038Z,29.07
2019-04-30T08:04:34.629Z,30.90
2019-04-30T08:07:04.866Z,30.30
2019-04-30T08:09:36.804Z,29.33
2019-04-30T08:09:39.163Z,30.27
2019-04-30T08:12:02.653Z,31.50
2019-04-30T08:14:29.589Z,28.40
2019-04-30T08:16:58.896Z,32.23
2019-04-30T08:19:25.781Z,29.73
2019-04-30T08:21:53.081Z,30.17
2019-04-30T08:24:29.069Z,30.57
2019-04-30T08:26:56.343Z,32.20
2019-04-30T08:29:25.295Z,32.73
2019-04-30T08:31:59.206Z,29.13
2019-04-30T08:34:25.988Z,30.07
2019-04-30T08:36:53.321Z,36.47
2019-04-30T08:39:20.309Z,31.10
2019-04-30T08:41:46.972Z,30.53
2019-04-30T08:44:13.755Z,29.00
2019-04-30T08:46:40.565Z,27.83
2019-04-30T08:49:09.821Z,27.93
2019-04-30T08:51:36.353Z,26.23
2019-04-30T08:54:03.165Z,26.83
2019-04-30T08:56:29.909Z,24.50
2019-04-30T08:58:56.839Z,25.53
2019-04-30T09:01:23.492Z,24.63
2019-04-30T09:03:51.353Z,26.37
2019-04-30T09:06:23.626Z,26.97
2019-04-30T09:08:59.342Z,25.90
2019-04-30T09:11:38.542Z,25.27
2019-04-30T09:13:59.180Z,26.27
2019-04-30T09:16:34.679Z,24.13
2019-04-30T09:19:05.628Z,25.33
2019-04-30T09:21:40.274Z,27.40
2019-04-30T09:24:30.952Z,24.53
2019-04-30T09:26:59.322Z,27.60
2019-04-30T09:29:26.138Z,26.33
2019-04-30T09:31:59.615Z,26.17
2019-04-30T09:34:26.345Z,24.80
2019-04-30T09:36:52.986Z,29.80
2019-04-30T09:39:22.860Z,27.27
2019-04-30T09:41:49.623Z,28.43
2019-04-30T09:44:16.386Z,29.97
2019-04-30T09:46:43.022Z,27.13
2019-04-30T09:49:11.764Z,27.93
2019-04-30T09:51:39.421Z,28.57
2019-04-30T09:54:09.467Z,27.50
2019-04-30T09:56:39.251Z,27.97
2019-04-30T09:59:06.802Z,27.90
2019-04-30T10:01:34.570Z,28.80
2019-04-30T10:04:02.104Z,28.93
2019-04-30T10:06:39.091Z,25.73
2019-04-30T10:08:59.742Z,26.57
2019-04-30T10:11:49.853Z,27.93
2019-04-30T10:14:15.004Z,27.87
2019-04-30T10:16:43.685Z,29.40
2019-04-30T10:19:10.389Z,29.47
2019-04-30T10:21:38.865Z,26.70
2019-04-30T10:24:14.710Z,27.70
2019-04-30T10:26:38.480Z,29.33
2019-04-30T10:29:06.354Z,27.10
2019-04-30T10:31:32.952Z,29.40
2019-04-30T10:34:01.608Z,30.03
2019-04-30T10:36:29.530Z,29.13
2019-04-30T10:38:56.743Z,27.17
2019-04-30T10:41:23.478Z,29.97
2019-04-30T10:43:50.356Z,29.23
2019-04-30T10:46:17.120Z,31.53
2019-04-30T10:48:44.114Z,28.90
2019-04-30T10:51:10.984Z,28.80
2019-04-30T10:53:37.554Z,28.73
2019-04-30T10:56:04.474Z,28.67
2019-04-30T10:58:33.414Z,29.50
2019-04-30T11:01:01.955Z,29.13
2019-04-30T11:03:29.131Z,30.97
2019-04-30T11:05:56.232Z,30.33
2019-04-30T11:08:22.945Z,33.10
2019-04-30T11:10:50.892Z,29.00
2019-04-30T11:13:17.576Z,30.80
2019-04-30T11:15:44.388Z,30.10
2019-04-30T11:18:11.382Z,31.67
2019-04-30T11:20:39.740Z,29.70
2019-04-30T11:23:14.284Z,34.20
2019-04-30T11:25:36.861Z,30.77
2019-04-30T11:28:04.896Z,33.70
2019-04-30T11:30:32.193Z,33.00
2019-04-30T11:32:59.436Z,36.53
2019-04-30T11:35:26.248Z,36.27
2019-04-30T11:37:53.002Z,35.67
2019-04-30T11:40:33.959Z,36.63
2019-04-30T11:42:56.772Z,37.70
2019-04-30T11:45:43.916Z,36.47
2019-04-30T11:48:10.604Z,37.37
2019-04-30T11:50:43.600Z,40.43
2019-04-30T11:53:24.544Z,41.83
2019-04-30T11:55:44.344Z,40.67
2019-04-30T11:58:30.341Z,41.63
2019-04-30T12:01:02.184Z,39.47
2019-04-30T12:03:32.131Z,40.30
2019-04-30T12:05:58.990Z,42.40
2019-04-30T12:08:29.347Z,40.70
2019-04-30T12:10:58.122Z,45.17
2019-04-30T12:13:32.611Z,43.03
2019-04-30T12:15:59.546Z,45.23
2019-04-30T12:18:26.377Z,44.93
2019-04-30T12:20:53.271Z,44.33
2019-04-30T12:23:22.054Z,42.90
2019-04-30T12:25:49.260Z,43.17
2019-04-30T12:28:17.105Z,44.20
2019-04-30T12:30:44.708Z,41.27
2019-04-30T12:33:21.234Z,42.40
2019-04-30T12:35:46.136Z,42.37
2019-04-30T12:38:19.178Z,43.47
2019-04-30T12:40:50.701Z,41.90
2019-04-30T12:43:18.442Z,45.03
2019-04-30T12:45:45.033Z,42.93
2019-04-30T12:48:29.558Z,45.63
2019-04-30T12:51:14.895Z,44.57
2019-04-30T12:53:55.416Z,45.00
2019-04-30T12:56:29.896Z,46.37
2019-04-30T12:59:05.708Z,46.83
2019-04-30T13:01:34.231Z,49.97
2019-04-30T13:04:01.547Z,48.23
2019-04-30T13:06:28.997Z,45.23
2019-04-30T13:08:56.421Z,46.87
2019-04-30T13:11:23.969Z,47.37
2019-04-30T13:13:51.540Z,50.47
2019-04-30T13:16:19.417Z,46.47
2019-04-30T13:18:46.135Z,49.13
2019-04-30T13:21:12.946Z,48.03
2019-04-30T13:23:39.650Z,49.80
2019-04-30T13:26:08.927Z,47.37
2019-04-30T13:28:37.648Z,47.57
2019-04-30T13:31:04.486Z,48.57
2019-04-30T13:33:36.136Z,47.13
2019-04-30T13:36:03.377Z,50.77
2019-04-30T13:38:45.146Z,48.00
2019-04-30T13:41:05.341Z,45.33
2019-04-30T13:43:50.516Z,45.17
2019-04-30T13:46:19.232Z,45.00
2019-04-30T13:48:45.934Z,45.93
2019-04-30T13:51:12.660Z,47.87
2019-04-30T13:53:39.600Z,48.67
2019-04-30T13:56:06.583Z,50.33
2019-04-30T13:58:33.229Z,52.00
2019-04-30T14:01:01.855Z,51.83
2019-04-30T14:03:33.201Z,50.90
2019-04-30T14:06:00.016Z,50.80
2019-04-30T14:08:29.042Z,49.87
2019-04-30T14:10:55.676Z,52.37
2019-04-30T14:13:23.409Z,51.93
2019-04-30T14:15:50.433Z,50.07
2019-04-30T14:18:28.468Z,51.23
2019-04-30T14:20:47.056Z,50.20
2019-04-30T14:23:13.783Z,49.87
2019-04-30T14:25:56.422Z,46.10
2019-04-30T14:28:19.044Z,49.93
2019-04-30T14:30:45.961Z,48.40
2019-04-30T14:33:23.351Z,50.47
2019-04-30T14:35:41.587Z,49.47
2019-04-30T14:38:09.070Z,48.27
2019-04-30T14:40:36.239Z,47.57
2019-04-30T14:43:05.416Z,44.63
2019-04-30T14:45:51.189Z,46.73
2019-04-30T14:48:23.946Z,50.40
2019-04-30T14:50:51.253Z,51.77
2019-04-30T14:53:19.997Z,50.47
2019-04-30T14:55:49.548Z,53.43
2019-04-30T14:58:20.985Z,51.77
2019-04-30T15:00:49.816Z,54.30
2019-04-30T15:03:19.393Z,52.30
2019-04-30T15:05:49.476Z,52.23
2019-04-30T15:08:14.883Z,51.53
2019-04-30T15:10:41.808Z,52.60
2019-04-30T15:13:09.847Z,49.23
2019-04-30T15:15:36.451Z,46.77
2019-04-30T15:18:03.375Z,47.90
2019-04-30T15:20:30.116Z,47.73
2019-04-30T15:23:08.781Z,48.27
2019-04-30T15:25:36.010Z,48.00
2019-04-30T15:28:02.830Z,49.93
2019-04-30T15:30:31.673Z,48.17
2019-04-30T15:33:06.176Z,48.20
2019-04-30T15:35:32.836Z,45.40
2019-04-30T15:38:00.549Z,50.33
2019-04-30T15:40:28.844Z,48.73
2019-04-30T15:42:57.602Z,50.23
2019-04-30T15:45:24.333Z,49.80
2019-04-30T15:47:52.879Z,49.10
2019-04-30T15:50:20.287Z,50.07
2019-04-30T15:52:48.621Z,50.27
2019-04-30T15:55:18.979Z,49.43
2019-04-30T15:57:59.574Z,48.47
2019-04-30T16:00:29.258Z,51.33
2019-04-30T16:03:00.154Z,53.67
2019-04-30T16:05:31.621Z,50.70
2019-04-30T16:08:00.416Z,52.97
2019-04-30T16:10:41.341Z,51.57
2019-04-30T16:13:14.568Z,50.50
2019-04-30T16:15:45.990Z,52.63
2019-04-30T16:18:13.362Z,51.87
2019-04-30T16:20:42.327Z,50.83
2019-04-30T16:23:10.123Z,47.30
2019-04-30T16:25:39.029Z,46.67
2019-04-30T16:30:57.549Z,47.20
2019-04-30T16:33:25.394Z,47.10
2019-04-30T16:35:55.758Z,51.17
2019-04-30T16:38:24.367Z,46.13
2019-04-30T16:41:00.202Z,48.07
2019-04-30T16:43:29.268Z,46.13
2019-04-30T16:45:55.376Z,46.47
2019-04-30T16:48:21.977Z,52.23
2019-04-30T16:50:51.250Z,49.77
2019-04-30T16:53:17.594Z,50.40
2019-04-30T16:55:44.246Z,50.90
2019-04-30T16:58:10.983Z,51.40
2019-04-30T17:00:39.212Z,50.23
2019-04-30T17:03:19.849Z,48.50
2019-04-30T17:05:57.172Z,53.27
2019-04-30T17:08:31.827Z,51.97
2019-04-30T17:11:00.474Z,52.67
2019-04-30T17:13:44.340Z,52.10
2019-04-30T17:16:12.854Z,53.00
2019-04-30T17:18:41.830Z,50.83
2019-04-30T17:21:09.877Z,47.07
2019-04-30T17:23:36.466Z,50.17
2019-04-30T17:26:03.320Z,46.77
2019-04-30T17:28:30.606Z,49.57
2019-04-30T17:30:58.496Z,46.37
2019-04-30T17:33:25.656Z,49.73
2019-04-30T17:35:52.648Z,48.80
2019-04-30T17:38:19.338Z,46.47
2019-04-30T17:40:45.980Z,48.77
2019-04-30T17:43:12.724Z,48.30
2019-04-30T17:45:41.092Z,49.77
2019-04-30T17:48:07.934Z,50.00
2019-04-30T17:50:34.678Z,48.77
2019-04-30T17:53:01.856Z,46.70
2019-04-30T17:55:29.189Z,41.10
2019-04-30T17:57:55.808Z,42.70
2019-04-30T18:00:23.115Z,43.50
2019-04-30T18:02:50.196Z,44.70
2019-04-30T18:05:16.816Z,42.83
2019-04-30T18:07:43.589Z,44.70
2019-04-30T18:10:12.586Z,41.20
2019-04-30T18:12:40.664Z,39.80
2019-04-30T18:15:13.143Z,41.03
2019-04-30T18:17:40.296Z,42.33
2019-04-30T18:20:19.180Z,42.43
2019-04-30T18:22:53.811Z,43.00
2019-04-30T18:25:31.386Z,46.13
2019-04-30T18:28:01.028Z,42.93
2019-04-30T18:30:32.518Z,42.77
2019-04-30T18:33:03.720Z,40.93
2019-04-30T18:35:32.582Z,40.53
2019-04-30T18:38:01.201Z,40.60
2019-04-30T18:40:29.599Z,38.50
2019-04-30T18:42:56.795Z,38.40
2019-04-30T18:45:23.585Z,42.63
2019-04-30T18:47:50.202Z,39.37
2019-04-30T18:50:17.144Z,41.20
2019-04-30T18:52:43.900Z,42.20
2019-04-30T18:55:10.827Z,47.80
2019-04-30T18:57:37.643Z,46.07
2019-04-30T19:00:06.885Z,46.97
2019-04-30T19:02:33.950Z,44.50
2019-04-30T19:05:00.707Z,43.73
2019-04-30T19:07:29.330Z,43.67
2019-04-30T19:10:10.048Z,42.50
2019-04-30T19:12:56.346Z,44.63
2019-04-30T19:16:14.235Z,44.87
2019-04-30T19:18:28.071Z,45.30
2019-04-30T19:20:57.472Z,43.23
2019-04-30T19:23:24.094Z,49.27
2019-04-30T19:25:51.086Z,46.00
2019-04-30T19:28:19.705Z,47.60
2019-04-30T19:30:55.916Z,47.47
2019-04-30T19:33:16.432Z,48.60
2019-04-30T19:35:43.171Z,49.70
2019-04-30T19:38:09.932Z,47.97
2019-04-30T19:40:36.653Z,49.63
2019-04-30T19:43:03.951Z,48.80
2019-04-30T19:45:31.862Z,48.27
2019-04-30T19:47:58.698Z,49.93
2019-04-30T19:50:25.752Z,51.93
2019-04-30T19:52:52.362Z,49.27
2019-04-30T19:55:20.623Z,48.47
2019-04-30T19:57:48.371Z,50.93
2019-04-30T20:00:16.433Z,50.73
2019-04-30T20:02:43.300Z,51.67
2019-04-30T20:05:10.149Z,51.50
2019-04-30T20:07:37.050Z,50.93
2019-04-30T20:10:05.621Z,53.33
2019-04-30T20:12:32.249Z,51.60
2019-04-30T20:15:00.507Z,55.40
2019-04-30T20:17:29.089Z,54.90
2019-04-30T20:19:59.719Z,51.93
2019-04-30T20:22:29.575Z,52.97
2019-04-30T20:24:56.888Z,52.00
2019-04-30T20:27:23.965Z,54.27
2019-04-30T20:29:55.213Z,54.07
2019-04-30T20:32:33.838Z,56.97
2019-04-30T20:34:51.620Z,54.57
2019-04-30T20:37:19.658Z,53.80
2019-04-30T20:39:51.370Z,55.80
2019-04-30T20:42:21.407Z,55.77
2019-04-30T20:44:48.981Z,55.93
2019-04-30T20:47:21.083Z,58.60
2019-04-30T20:49:51.118Z,55.23
2019-04-30T20:52:20.675Z,58.47
2019-04-30T20:54:48.866Z,54.33
2019-04-30T20:57:16.970Z,56.47
2019-04-30T20:59:44.039Z,58.17
2019-04-30T21:02:12.195Z,56.33
2019-04-30T21:04:38.888Z,58.90
2019-04-30T21:07:09.439Z,59.50
2019-04-30T21:09:36.405Z,60.40
2019-04-30T21:12:04.574Z,57.77
2019-04-30T21:14:31.521Z,63.00
2019-04-30T21:16:58.697Z,58.70
2019-04-30T21:19:26.751Z,61.30
2019-04-30T21:21:55.356Z,61.50
2019-04-30T21:24:27.484Z,65.10
2019-04-30T21:26:54.248Z,69.47
2019-04-30T21:29:20.917Z,66.53
2019-04-30T21:31:53.355Z,66.90
2019-04-30T21:34:23.188Z,64.87
2019-04-30T21:36:54.395Z,63.40
2019-04-30T21:39:21.038Z,67.47
2019-04-30T21:41:49.444Z,66.03
2019-04-30T21:44:17.471Z,66.87
2019-04-30T21:46:48.714Z,65.30
2019-04-30T21:49:21.036Z,66.63
2019-04-30T21:51:55.602Z,68.53
2019-04-30T21:54:38.374Z,67.27
2019-04-30T21:57:13.253Z,72.37
2019-04-30T22:00:03.772Z,69.53
2019-04-30T22:05:46.945Z,67.63
2019-04-30T22:14:12.564Z,69.60
2019-04-30T22:16:44.136Z,68.00
2019-04-30T22:25:09.449Z,69.87
2019-04-30T22:27:39.248Z,70.27
2019-04-30T22:30:18.639Z,67.87
2019-04-30T22:32:54.786Z,67.23
2019-04-30T22:35:27.948Z,71.47
2019-04-30T22:37:59.205Z,70.57
2019-04-30T22:40:32.683Z,68.80
2019-04-30T22:43:02.278Z,71.50
2019-04-30T22:45:46.296Z,70.17
2019-04-30T22:48:18.720Z,70.60
2019-04-30T22:50:46.287Z,67.80
2019-04-30T22:53:14.917Z,69.73
2019-04-30T22:55:51.242Z,68.60
2019-04-30T22:58:20.228Z,73.40
2019-04-30T23:00:53.163Z,73.47
2019-04-30T23:03:27.327Z,72.80
2019-04-30T23:05:59.531Z,72.13
2019-04-30T23:08:31.739Z,71.90
2019-04-30T23:11:01.647Z,68.00
2019-04-30T23:13:28.551Z,71.07
2019-04-30T23:15:57.142Z,71.70
2019-04-30T23:18:23.927Z,75.70
2019-04-30T23:20:56.835Z,70.10
2019-04-30T23:23:27.622Z,74.63
2019-04-30T23:25:54.467Z,75.70
2019-04-30T23:28:21.320Z,74.67
2019-04-30T23:30:47.955Z,71.03
2019-04-30T23:33:15.071Z,71.90
2019-04-30T23:35:41.855Z,71.07
2019-04-30T23:38:08.587Z,73.80
2019-04-30T23:40:48.573Z,71.40
2019-04-30T23:43:15.409Z,76.03
2019-04-30T23:45:42.121Z,73.73
2019-04-30T23:48:09.919Z,73.80
2019-04-30T23:50:36.559Z,73.03
2019-04-30T23:53:03.323Z,73.07
2019-04-30T23:55:29.982Z,73.47
2019-04-30T23:57:56.673Z,73.43
